Time;durP1;ratioP1;P1;durP2;ratioP2;P2;SDS_P1;SDS_P2;PMS_P1;PMS_P2;Temp;Humidity;BMP_temperature;BMP_pressure;BME280_temperature;BME280_humidity;BME280_pressure;Samples;Min_cycle;Max_cycle;Signal;HPM_P1;HPM_P2
2023/11/25 00:00:10;;;;;;;3.22;1.73;;;;;;;4.97;100.00;98481.44;5072214;28;20135;-42
2023/11/25 00:02:39;;;;;;;4.68;2.03;;;;;;;5.18;100.00;98452.75;5072225;28;20477;-41
2023/11/25 00:05:08;;;;;;;3.67;1.70;;;;;;;4.94;100.00;98452.59;5072477;28;20127;-43
2023/11/25 00:07:38;;;;;;;5.55;2.67;;;;;;;4.94;100.00;98447.31;5072416;28;20547;-42
2023/11/25 00:10:07;;;;;;;5.35;2.47;;;;;;;5.00;100.00;98462.72;5072034;28;20512;-42
2023/11/25 00:12:36;;;;;;;6.55;3.03;;;;;;;5.21;100.00;98459.63;5071678;28;20180;-42
2023/11/25 00:15:08;;;;;;;7.78;2.72;;;;;;;5.10;100.00;98463.81;5071946;28;20508;-40
2023/11/25 00:17:36;;;;;;;4.00;2.05;;;;;;;5.12;100.00;98467.22;5072073;28;20045;-42
2023/11/25 00:20:07;;;;;;;3.90;2.00;;;;;;;5.15;100.00;98458.25;5073364;28;20405;-47
2023/11/25 00:22:38;;;;;;;3.97;1.83;;;;;;;4.89;100.00;98454.66;5073311;28;20370;-42
2023/11/25 00:25:08;;;;;;;2.42;1.60;;;;;;;5.10;100.00;98453.25;5071760;28;20067;-41
2023/11/25 00:27:37;;;;;;;4.25;1.67;;;;;;;4.72;100.00;98468.97;5071921;28;20093;-44
2023/11/25 00:30:07;;;;;;;3.25;1.40;;;;;;;4.88;100.00;98479.41;5071987;28;20394;-42
2023/11/25 00:32:37;;;;;;;2.72;1.60;;;;;;;4.83;100.00;98479.72;5071599;28;20501;-42
2023/11/25 00:35:06;;;;;;;3.42;1.80;;;;;;;5.00;100.00;98470.66;5071645;28;20051;-40
2023/11/25 00:37:35;;;;;;;2.70;1.65;;;;;;;5.11;100.00;98472.59;5071512;28;20405;-41
2023/11/25 00:40:05;;;;;;;2.38;1.48;;;;;;;4.82;100.00;98480.63;5071345;28;20087;-42
2023/11/25 00:42:35;;;;;;;2.53;1.35;;;;;;;4.84;100.00;98483.19;5071280;28;21136;-43
2023/11/25 00:45:04;;;;;;;3.22;1.48;;;;;;;4.84;100.00;98483.19;5071791;28;20087;-42
2023/11/25 00:47:32;;;;;;;5.25;1.90;;;;;;;4.76;100.00;98469.63;5071599;28;20136;-44
2023/11/25 00:50:00;;;;;;;3.13;1.65;;;;;;;4.57;100.00;98454.13;5071479;28;20045;-43
2023/11/25 00:52:29;;;;;;;3.78;1.50;;;;;;;4.44;100.00;98447.91;5071273;28;20105;-42
2023/11/25 00:54:57;;;;;;;3.03;1.60;;;;;;;4.56;100.00;98455.91;5071649;28;20048;-42
2023/11/25 00:57:26;;;;;;;3.30;1.65;;;;;;;4.69;100.00;98452.47;5071324;28;20040;-41
2023/11/25 00:59:55;;;;;;;3.20;1.58;;;;;;;4.60;100.00;98459.19;5071782;28;20080;-42
2023/11/25 01:02:23;;;;;;;3.53;1.55;;;;;;;4.70;100.00;98444.44;5071043;28;20421;-43
2023/11/25 01:04:52;;;;;;;4.28;1.58;;;;;;;4.57;100.00;98444.41;5070840;28;20056;-41
2023/11/25 01:07:20;;;;;;;3.00;1.40;;;;;;;4.62;100.00;98445.88;5071447;28;20049;-44
2023/11/25 01:09:49;;;;;;;4.20;1.55;;;;;;;4.63;100.00;98450.22;5071206;28;20049;-42
2023/11/25 01:12:17;;;;;;;2.45;1.45;;;;;;;4.79;100.00;98454.41;5071324;28;20105;-44
2023/11/25 01:14:45;;;;;;;4.30;1.63;;;;;;;4.62;100.00;98441.44;5071259;28;20128;-42
2023/11/25 01:17:15;;;;;;;4.70;1.60;;;;;;;4.74;100.00;98439.84;5071201;28;20041;-42
2023/11/25 01:19:43;;;;;;;3.30;1.40;;;;;;;4.65;100.00;98441.28;5071165;28;20080;-42
2023/11/25 01:22:12;;;;;;;5.22;1.70;;;;;;;4.73;100.00;98443.41;5071256;28;20094;-43
2023/11/25 01:24:40;;;;;;;3.75;1.70;;;;;;;4.72;100.00;98449.63;5070740;28;20676;-42
2023/11/25 01:27:09;;;;;;;3.00;1.48;;;;;;;4.85;100.00;98447.91;5070939;28;20102;-43
2023/11/25 01:29:37;;;;;;;3.78;1.83;;;;;;;4.72;100.00;98454.91;5070953;28;20477;-42
2023/11/25 01:32:06;;;;;;;3.72;1.70;;;;;;;4.86;100.00;98445.16;5070825;28;20041;-44
2023/11/25 01:34:36;;;;;;;4.03;1.88;;;;;;;4.79;100.00;98443.00;5071220;28;20059;-41
2023/11/25 01:37:04;;;;;;;4.20;1.80;;;;;;;4.86;100.00;98450.44;5071166;28;20524;-43
2023/11/25 01:39:34;;;;;;;4.10;1.83;;;;;;;4.99;100.00;98450.47;5071052;28;20460;-41
2023/11/25 01:42:02;;;;;;;3.35;1.52;;;;;;;4.89;100.00;98444.09;5070902;28;20543;-41
2023/11/25 01:44:31;;;;;;;4.65;1.83;;;;;;;4.78;100.00;98441.31;5070921;28;20047;-42
2023/11/25 01:46:59;;;;;;;2.95;1.65;;;;;;;4.77;100.00;98437.84;5071123;28;20113;-43
2023/11/25 01:49:28;;;;;;;6.70;1.50;;;;;;;4.84;100.00;98446.22;5071029;28;20048;-42
2023/11/25 01:51:58;;;;;;;3.05;1.42;;;;;;;4.85;100.00;98432.91;5071808;28;20410;-42
2023/11/25 01:54:27;;;;;;;3.97;1.60;;;;;;;4.82;100.00;98424.31;5074632;28;20079;-41
2023/11/25 01:56:58;;;;;;;3.92;1.67;;;;;;;4.92;100.00;98414.81;5074346;28;20080;-42
2023/11/25 01:59:28;;;;;;;3.47;1.73;;;;;;;5.00;100.00;98423.09;5074512;28;20473;-42
2023/11/25 02:01:57;;;;;;;3.20;1.98;;;;;;;5.13;100.00;98426.63;5074646;28;20048;-42
2023/11/25 02:04:25;;;;;;;4.68;1.70;;;;;;;4.80;100.00;98427.06;5074551;28;20500;-42
2023/11/25 02:06:54;;;;;;;3.72;1.63;;;;;;;4.66;100.00;98426.28;5074350;28;20048;-42
2023/11/25 02:09:24;;;;;;;3.20;1.60;;;;;;;4.70;100.00;98411.91;5074259;28;20045;-42
2023/11/25 02:12:01;;;;;;;3.75;1.75;;;;;;;4.74;100.00;98408.97;5074276;28;20135;-46
2023/11/25 02:14:30;;;;;;;3.22;1.52;;;;;;;4.65;100.00;98408.75;5074333;28;20063;-42
2023/11/25 02:16:59;;;;;;;2.83;1.60;;;;;;;4.83;100.00;98410.19;5074199;28;20821;-42
2023/11/25 02:19:28;;;;;;;3.97;1.80;;;;;;;4.88;100.00;98400.13;5074260;28;20048;-41
2023/11/25 02:21:58;;;;;;;3.00;1.50;;;;;;;4.92;100.00;98404.25;5073850;28;20052;-45
2023/11/25 02:24:29;;;;;;;4.65;2.03;;;;;;;5.01;100.00;98405.44;5073725;28;20048;-41
2023/11/25 02:26:59;;;;;;;4.85;1.98;;;;;;;4.67;100.00;98397.13;5073922;28;20048;-42
2023/11/25 02:29:28;;;;;;;3.47;1.70;;;;;;;4.72;100.00;98407.38;5073955;28;20118;-42
2023/11/25 02:31:58;;;;;;;4.60;1.95;;;;;;;4.79;100.00;98411.31;5073905;28;20102;-42
2023/11/25 02:34:27;;;;;;;3.80;1.63;;;;;;;4.69;100.00;98423.44;5073677;28;20114;-41
2023/11/25 02:36:57;;;;;;;3.83;1.70;;;;;;;4.58;100.00;98432.91;5073599;28;20202;-42
2023/11/25 02:39:27;;;;;;;3.60;1.63;;;;;;;4.76;100.00;98422.09;5073827;28;20048;-42
2023/11/25 02:41:58;;;;;;;4.65;1.73;;;;;;;4.82;100.00;98438.34;5074271;28;20140;-42
2023/11/25 02:44:27;;;;;;;4.78;1.67;;;;;;;4.92;100.00;98430.69;5075349;28;20143;-42
2023/11/25 02:46:55;;;;;;;4.30;1.60;;;;;;;4.71;100.00;98438.22;5073589;28;20048;-40
2023/11/25 02:49:25;;;;;;;4.57;1.90;;;;;;;4.69;100.00;98441.91;5073411;28;20127;-41
2023/11/25 02:51:55;;;;;;;5.45;1.70;;;;;;;4.73;100.00;98436.34;5073555;28;20505;-42
2023/11/25 02:54:24;;;;;;;5.40;1.55;;;;;;;4.69;100.00;98431.34;5073488;28;20048;-42
2023/11/25 02:56:53;;;;;;;3.05;1.60;;;;;;;4.57;100.00;98431.19;5073362;28;20148;-40
2023/11/25 02:59:22;;;;;;;4.03;1.73;;;;;;;4.43;100.00;98444.44;5073469;28;20045;-41
2023/11/25 03:01:52;;;;;;;4.97;1.75;;;;;;;4.48;100.00;98439.72;5073224;28;20050;-41
2023/11/25 03:04:23;;;;;;;3.90;1.60;;;;;;;4.47;100.00;98438.03;5072281;28;20131;-42
2023/11/25 03:06:52;;;;;;;2.83;1.65;;;;;;;4.57;100.00;98444.41;5073032;28;20086;-42
2023/11/25 03:09:21;;;;;;;2.45;1.35;;;;;;;4.55;100.00;98443.66;5073207;28;20090;-41
2023/11/25 03:11:50;;;;;;;3.47;1.90;;;;;;;4.51;100.00;98439.50;5073001;28;20366;-42
2023/11/25 03:14:22;;;;;;;5.43;1.50;;;;;;;4.70;100.00;98427.75;5072970;28;20056;-42
2023/11/25 03:16:53;;;;;;;4.07;1.48;;;;;;;4.58;100.00;98435.53;5073202;28;20041;-41
2023/11/25 03:19:23;;;;;;;5.15;1.80;;;;;;;4.67;100.00;98438.53;5073038;28;20051;-42
2023/11/25 03:21:51;;;;;;;4.43;1.50;;;;;;;4.71;100.00;98438.22;5073018;28;20051;-41
2023/11/25 03:24:21;;;;;;;4.38;1.60;;;;;;;4.60;100.00;98433.63;5072774;28;20059;-41
2023/11/25 03:26:49;;;;;;;2.97;1.63;;;;;;;4.73;100.00;98433.72;5072751;28;20049;-41
2023/11/25 03:29:18;;;;;;;4.13;1.60;;;;;;;4.80;100.00;98442.06;5072978;28;20048;-42
2023/11/25 03:31:48;;;;;;;3.92;1.63;;;;;;;4.85;100.00;98439.97;5072866;28;20041;-42
2023/11/25 03:34:17;;;;;;;3.72;1.50;;;;;;;4.89;100.00;98433.53;5072784;28;20203;-42
2023/11/25 03:36:45;;;;;;;5.00;1.38;;;;;;;5.03;100.00;98435.28;5072891;28;20436;-42
2023/11/25 03:39:13;;;;;;;4.68;1.50;;;;;;;5.07;100.00;98440.25;5072483;28;20041;-41
2023/11/25 03:41:42;;;;;;;4.38;1.80;;;;;;;4.97;100.00;98436.53;5072407;28;20048;-42
2023/11/25 03:44:11;;;;;;;4.13;1.25;;;;;;;4.93;100.00;98440.31;5072598;28;20056;-42
2023/11/25 03:46:41;;;;;;;4.28;1.40;;;;;;;4.92;100.00;98438.59;5072278;28;20082;-41
2023/11/25 03:49:12;;;;;;;4.25;1.58;;;;;;;4.91;100.00;98438.72;5072454;28;20048;-42
2023/11/25 03:51:40;;;;;;;2.00;1.20;;;;;;;4.93;100.00;98432.41;5072355;28;20084;-41
2023/11/25 03:54:10;;;;;;;5.07;1.35;;;;;;;5.02;100.00;98434.44;5072131;28;20394;-42
2023/11/25 03:56:38;;;;;;;4.20;1.55;;;;;;;5.04;100.00;98440.47;5072269;28;20210;-41
2023/11/25 03:59:08;;;;;;;3.28;1.42;;;;;;;5.07;100.00;98439.41;5072453;28;20062;-41
2023/11/25 04:01:36;;;;;;;2.00;1.25;;;;;;;4.96;100.00;98437.47;5072314;28;20059;-42
2023/11/25 04:04:06;;;;;;;4.68;1.40;;;;;;;5.00;100.00;98436.31;5072275;28;20056;-41
2023/11/25 04:06:36;;;;;;;3.80;1.50;;;;;;;5.11;100.00;98444.38;5071936;28;20044;-41
2023/11/25 04:09:05;;;;;;;3.75;1.65;;;;;;;5.11;100.00;98436.44;5072217;28;20135;-41
2023/11/25 04:11:33;;;;;;;4.47;2.00;;;;;;;5.11;100.00;98435.59;5072331;28;20045;-42
2023/11/25 04:14:02;;;;;;;4.85;2.05;;;;;;;5.02;100.00;98439.72;5072123;28;20055;-41
2023/11/25 04:16:30;;;;;;;5.60;1.73;;;;;;;5.00;100.00;98435.47;5071860;28;20044;-41
2023/11/25 04:18:59;;;;;;;5.10;1.88;;;;;;;4.86;100.00;98434.59;5072075;28;20097;-44
2023/11/25 04:21:27;;;;;;;5.50;2.00;;;;;;;4.87;100.00;98427.50;5071957;28;20045;-41
2023/11/25 04:23:57;;;;;;;3.88;1.90;;;;;;;4.93;100.00;98435.03;5071919;28;20140;-41
2023/11/25 04:26:25;;;;;;;3.65;1.77;;;;;;;5.05;100.00;98439.50;5070772;28;20048;-41
2023/11/25 04:28:54;;;;;;;2.97;1.58;;;;;;;5.03;100.00;98441.41;5072153;28;20086;-41
2023/11/25 04:31:22;;;;;;;3.13;1.50;;;;;;;5.10;100.00;98442.66;5071973;28;20083;-43
2023/11/25 04:33:50;;;;;;;3.55;1.30;;;;;;;5.11;100.00;98441.72;5071808;28;20492;-41
2023/11/25 04:36:18;;;;;;;4.03;1.60;;;;;;;5.07;100.00;98448.16;5071763;28;20052;-41
2023/11/25 04:38:47;;;;;;;3.60;1.50;;;;;;;5.13;100.00;98439.00;5071725;28;20139;-42
2023/11/25 04:41:18;;;;;;;3.90;1.50;;;;;;;5.06;100.00;98443.00;5071575;28;20532;-42
2023/11/25 04:43:46;;;;;;;2.95;1.35;;;;;;;5.16;100.00;98447.56;5071693;28;20049;-41
2023/11/25 04:46:15;;;;;;;3.70;1.80;;;;;;;5.09;100.00;98450.72;5071473;28;20090;-41
2023/11/25 04:48:44;;;;;;;5.38;1.50;;;;;;;4.99;100.00;98450.47;5071750;28;20132;-41
2023/11/25 04:51:12;;;;;;;5.40;1.63;;;;;;;4.93;100.00;98450.91;5071646;28;20079;-43
2023/11/25 04:53:40;;;;;;;4.35;1.20;;;;;;;4.81;100.00;98446.38;5071403;28;20665;-42
2023/11/25 04:56:09;;;;;;;6.97;1.50;;;;;;;4.82;100.00;98443.66;5071198;28;20532;-42
2023/11/25 04:58:41;;;;;;;4.10;1.80;;;;;;;4.85;100.00;98447.91;5071305;28;20080;-42
2023/11/25 05:01:10;;;;;;;5.47;1.55;;;;;;;4.83;100.00;98449.81;5071329;28;20040;-41
2023/11/25 05:03:38;;;;;;;4.97;1.63;;;;;;;4.88;100.00;98450.34;5071756;28;20090;-42
2023/11/25 05:06:09;;;;;;;4.53;1.73;;;;;;;4.88;100.00;98447.69;5072748;28;20053;-42
2023/11/25 05:08:37;;;;;;;4.85;1.50;;;;;;;4.85;100.00;98447.91;5072501;28;20048;-41
2023/11/25 05:11:06;;;;;;;4.88;1.55;;;;;;;4.92;100.00;98453.59;5071360;28;20094;-42
2023/11/25 05:13:34;;;;;;;3.65;1.40;;;;;;;4.86;100.00;98462.81;5071346;28;20386;-44
2023/11/25 05:16:05;;;;;;;2.58;1.02;;;;;;;4.89;100.00;98454.66;5071218;28;20145;-41
2023/11/25 05:18:33;;;;;;;4.82;1.50;;;;;;;4.87;100.00;98467.97;5071302;28;20040;-41
2023/11/25 05:21:03;;;;;;;5.22;1.75;;;;;;;4.96;100.00;98465.69;5071405;28;20053;-42
2023/11/25 05:23:31;;;;;;;4.10;1.60;;;;;;;4.95;100.00;98461.34;5070829;28;20044;-40
2023/11/25 05:25:59;;;;;;;4.70;1.48;;;;;;;4.90;100.00;98466.94;5071067;28;20052;-41
2023/11/25 05:28:28;;;;;;;2.65;1.38;;;;;;;4.79;100.00;98465.00;5074122;28;20052;-42
2023/11/25 05:30:56;;;;;;;3.42;1.40;;;;;;;4.88;100.00;98463.53;5074922;28;20575;-42
2023/11/25 05:33:27;;;;;;;3.92;1.50;;;;;;;4.76;100.00;98465.19;5075058;28;20434;-42
2023/11/25 05:35:56;;;;;;;4.55;1.50;;;;;;;4.80;100.00;98468.47;5075028;28;20485;-41
2023/11/25 05:38:24;;;;;;;3.20;1.50;;;;;;;4.80;100.00;98468.47;5074758;28;20531;-41
2023/11/25 05:40:53;;;;;;;5.72;1.70;;;;;;;4.79;100.00;98461.50;5073515;28;20052;-42
2023/11/25 05:43:24;;;;;;;5.60;1.60;;;;;;;4.75;100.00;98458.22;5074939;28;20102;-41
2023/11/25 05:45:52;;;;;;;8.07;2.15;;;;;;;4.66;100.00;98456.16;5074859;28;20049;-42
2023/11/25 05:48:22;;;;;;;3.22;1.42;;;;;;;4.59;100.00;98452.22;5074732;28;20080;-42
2023/11/25 05:50:52;;;;;;;4.35;2.17;;;;;;;4.26;100.00;98449.94;5074676;28;20063;-40
2023/11/25 05:53:24;;;;;;;5.00;1.75;;;;;;;4.20;100.00;98452.97;5074491;28;20068;-42
2023/11/25 05:55:52;;;;;;;4.45;2.00;;;;;;;4.33;100.00;98467.06;5073559;28;20071;-41
2023/11/25 05:58:21;;;;;;;5.78;2.20;;;;;;;4.47;100.00;98464.44;5074638;28;20045;-41
2023/11/25 06:00:49;;;;;;;4.22;1.92;;;;;;;4.53;100.00;98471.09;5074571;28;20053;-42
2023/11/25 06:03:18;;;;;;;4.22;1.80;;;;;;;4.51;100.00;98471.19;5074480;28;20048;-41
2023/11/25 06:05:46;;;;;;;9.65;2.30;;;;;;;4.41;100.00;98464.81;5074233;28;20102;-42
2023/11/25 06:08:16;;;;;;;4.40;1.80;;;;;;;4.36;100.00;98474.81;5074450;28;20049;-41
2023/11/25 06:10:45;;;;;;;4.72;1.90;;;;;;;4.29;100.00;98477.00;5074389;28;20044;-42
2023/11/25 06:13:15;;;;;;;4.13;1.80;;;;;;;4.33;100.00;98482.91;5074389;28;20048;-42
2023/11/25 06:15:44;;;;;;;3.47;1.65;;;;;;;4.30;100.00;98491.03;5074120;28;20050;-42
2023/11/25 06:18:14;;;;;;;4.90;1.90;;;;;;;4.37;100.00;98494.16;5074063;28;20060;-42
2023/11/25 06:20:43;;;;;;;4.03;1.90;;;;;;;4.45;100.00;98487.44;5074054;28;20630;-42
2023/11/25 06:23:11;;;;;;;5.47;2.20;;;;;;;4.33;100.00;98501.38;5073970;28;20482;-42
2023/11/25 06:25:42;;;;;;;6.35;2.13;;;;;;;4.09;100.00;98505.56;5073839;28;20052;-43
2023/11/25 06:28:14;;;;;;;4.95;2.05;;;;;;;4.16;100.00;98498.97;5074035;28;20438;-42
2023/11/25 06:30:43;;;;;;;5.65;2.15;;;;;;;4.36;100.00;98509.13;5073900;28;20136;-41
2023/11/25 06:33:11;;;;;;;5.55;2.28;;;;;;;4.33;100.00;98496.09;5073832;28;20067;-43
2023/11/25 06:35:40;;;;;;;4.63;2.20;;;;;;;4.28;100.00;98504.31;5074022;28;20151;-41
2023/11/25 06:38:08;;;;;;;3.60;1.95;;;;;;;4.40;100.00;98504.50;5073250;28;20053;-41
2023/11/25 06:40:37;;;;;;;5.18;2.30;;;;;;;4.08;100.00;98498.59;5073621;28;20086;-42
2023/11/25 06:43:07;;;;;;;5.55;2.20;;;;;;;4.30;100.00;98504.22;5073873;28;20420;-42
2023/11/25 06:45:40;;;;;;;4.18;2.00;;;;;;;4.25;100.00;98501.03;5073736;28;20052;-42
2023/11/25 06:48:08;;;;;;;5.25;2.08;;;;;;;4.07;100.00;98512.72;5073769;28;20048;-42
2023/11/25 06:50:38;;;;;;;5.50;2.40;;;;;;;4.06;100.00;98511.88;5073398;28;20051;-41
2023/11/25 06:53:07;;;;;;;5.97;2.72;;;;;;;4.14;100.00;98506.97;5073728;28;20151;-42
2023/11/25 06:55:38;;;;;;;4.18;1.92;;;;;;;4.26;100.00;98505.38;5073661;28;20401;-42
2023/11/25 06:58:10;;;;;;;6.75;2.25;;;;;;;4.26;100.00;98514.13;5074045;28;20072;-41
2023/11/25 07:00:39;;;;;;;4.85;1.92;;;;;;;4.41;100.00;98516.75;5078783;28;20055;-44
2023/11/25 07:03:08;;;;;;;4.90;2.45;;;;;;;4.45;100.00;98518.28;5079817;28;20466;-42
2023/11/25 07:05:38;;;;;;;4.60;2.30;;;;;;;4.53;100.00;98518.63;5073856;28;20055;-42
2023/11/25 07:08:06;;;;;;;3.85;1.73;;;;;;;4.22;100.00;98523.16;5074011;28;20177;-43
2023/11/25 07:10:35;;;;;;;7.28;2.10;;;;;;;4.53;100.00;98532.66;5073613;28;20087;-42
2023/11/25 07:13:05;;;;;;;6.07;2.25;;;;;;;4.70;100.00;98533.41;5073474;28;20072;-42
2023/11/25 07:15:35;;;;;;;4.32;1.90;;;;;;;4.67;100.00;98520.41;5076082;28;20045;-42
2023/11/25 07:18:06;;;;;;;3.80;1.75;;;;;;;4.73;100.00;98526.16;5093250;28;20059;-42
2023/11/25 07:20:35;;;;;;;5.90;1.90;;;;;;;4.73;100.00;98522.63;5093187;28;20174;-41
2023/11/25 07:23:04;;;;;;;4.40;1.80;;;;;;;4.66;100.00;98522.19;5093215;28;20527;-41
2023/11/25 07:25:32;;;;;;;4.18;1.77;;;;;;;4.81;100.00;98530.91;5093109;28;20052;-43
2023/11/25 07:28:00;;;;;;;3.15;1.70;;;;;;;4.70;100.00;98517.56;5093319;28;20044;-42
2023/11/25 07:30:29;;;;;;;4.88;1.80;;;;;;;4.66;100.00;98516.91;5094153;28;20147;-43
2023/11/25 07:32:59;;;;;;;3.35;1.58;;;;;;;4.75;100.00;98518.13;5094285;28;20085;-42
2023/11/25 07:35:28;;;;;;;4.47;1.60;;;;;;;4.73;100.00;98518.22;5075270;28;20052;-41
2023/11/25 07:37:56;;;;;;;5.15;1.85;;;;;;;4.99;100.00;98513.88;5072566;28;20106;-41
2023/11/25 07:40:24;;;;;;;4.30;1.63;;;;;;;4.90;100.00;98519.75;5072549;28;20508;-41
2023/11/25 07:42:53;;;;;;;5.07;1.85;;;;;;;4.60;100.00;98510.22;5072354;28;20091;-41
2023/11/25 07:45:21;;;;;;;4.07;1.90;;;;;;;5.05;100.00;98521.44;5072450;28;20044;-41
2023/11/25 07:47:49;;;;;;;4.20;2.10;;;;;;;5.15;100.00;98511.09;5072457;28;20452;-41
2023/11/25 07:50:21;;;;;;;4.68;1.75;;;;;;;5.01;100.00;98522.56;5071781;28;20052;-41
2023/11/25 07:52:50;;;;;;;3.97;1.73;;;;;;;4.98;100.00;98525.41;5072575;28;20044;-41
2023/11/25 07:55:19;;;;;;;4.07;1.75;;;;;;;5.05;100.00;98528.50;5072468;28;20044;-42
2023/11/25 07:57:48;;;;;;;4.60;1.90;;;;;;;5.05;100.00;98528.50;5072261;28;20041;-41
2023/11/25 08:00:19;;;;;;;3.38;1.50;;;;;;;5.05;100.00;98523.22;5072001;28;20052;-41
2023/11/25 08:02:48;;;;;;;4.93;1.60;;;;;;;4.77;100.00;98524.16;5071744;28;20230;-44
2023/11/25 08:05:22;;;;;;;5.10;1.95;;;;;;;5.01;100.00;98530.47;5071784;28;20080;-42
2023/11/25 08:07:54;;;;;;;3.70;1.85;;;;;;;5.11;100.00;98543.94;5071775;28;20580;-41
2023/11/25 08:10:24;;;;;;;2.88;1.55;;;;;;;5.28;100.00;98540.22;5071926;28;20048;-41
2023/11/25 08:12:52;;;;;;;4.38;1.60;;;;;;;5.49;100.00;98538.78;5071630;28;20080;-42
2023/11/25 08:15:21;;;;;;;3.25;1.50;;;;;;;5.29;100.00;98539.25;5071613;28;20481;-41
2023/11/25 08:17:49;;;;;;;4.15;1.73;;;;;;;5.06;100.00;98544.25;5071873;28;20059;-41
2023/11/25 08:20:18;;;;;;;4.38;1.88;;;;;;;5.34;100.00;98537.19;5070597;28;20123;-42
2023/11/25 08:22:46;;;;;;;3.50;1.80;;;;;;;5.42;100.00;98543.66;5070551;28;20051;-40
2023/11/25 08:25:16;;;;;;;5.80;1.73;;;;;;;5.40;100.00;98545.56;5070679;28;20131;-42
2023/11/25 08:27:51;;;;;;;3.95;1.92;;;;;;;5.61;100.00;98543.28;5071156;28;20627;-42
2023/11/25 08:30:20;;;;;;;4.25;2.00;;;;;;;5.57;100.00;98541.78;5071777;28;20049;-42
2023/11/25 08:32:49;;;;;;;3.65;1.55;;;;;;;5.50;100.00;98545.81;5071457;28;20185;-42
2023/11/25 08:35:17;;;;;;;3.83;1.40;;;;;;;5.37;100.00;98544.91;5071497;28;20489;-41
2023/11/25 08:37:47;;;;;;;4.05;1.58;;;;;;;5.38;100.00;98554.53;5071700;28;20143;-41
2023/11/25 08:40:21;;;;;;;4.80;1.50;;;;;;;5.48;100.00;98560.91;5071621;28;20497;-41
2023/11/25 08:42:50;;;;;;;3.55;1.55;;;;;;;5.55;100.00;98564.00;5071952;28;20044;-40
2023/11/25 08:45:19;;;;;;;3.28;1.58;;;;;;;5.42;100.00;98563.97;5071736;28;20052;-40
2023/11/25 08:47:49;;;;;;;4.20;1.52;;;;;;;5.35;100.00;98567.97;5071423;28;20481;-41
2023/11/25 08:50:18;;;;;;;3.92;1.60;;;;;;;5.86;100.00;98568.06;5071634;28;20135;-41
2023/11/25 08:52:48;;;;;;;3.97;1.70;;;;;;;5.87;100.00;98561.81;5071423;28;20040;-41
2023/11/25 08:55:19;;;;;;;4.30;1.42;;;;;;;5.68;100.00;98562.22;5071318;28;20047;-41
2023/11/25 08:57:48;;;;;;;4.00;2.10;;;;;;;5.96;100.00;98567.38;5071449;28;20048;-41
2023/11/25 09:00:20;;;;;;;5.00;1.95;;;;;;;5.99;100.00;98561.06;5071803;28;20080;-42
2023/11/25 09:02:50;;;;;;;3.90;1.67;;;;;;;5.96;100.00;98558.59;5064174;28;20045;-41
2023/11/25 09:05:21;;;;;;;5.68;1.88;;;;;;;6.00;100.00;98568.03;5068758;28;20524;-41
2023/11/25 09:07:51;;;;;;;4.28;2.10;;;;;;;6.00;100.00;98575.97;5071177;28;20040;-42
2023/11/25 09:10:22;;;;;;;5.60;2.10;;;;;;;5.99;100.00;98569.84;5071397;28;20136;-40
2023/11/25 09:12:52;;;;;;;4.25;2.00;;;;;;;6.00;100.00;98575.97;5071337;28;20049;-42
2023/11/25 09:15:22;;;;;;;4.78;1.95;;;;;;;6.07;100.00;98564.00;5071308;28;20044;-41
2023/11/25 09:17:51;;;;;;;4.18;2.00;;;;;;;5.73;100.00;98563.63;5071139;28;20060;-42
2023/11/25 09:20:21;;;;;;;3.88;1.70;;;;;;;5.78;100.00;98565.94;5071041;28;20082;-42
2023/11/25 09:22:51;;;;;;;4.95;1.75;;;;;;;5.86;100.00;98563.63;5071261;28;20041;-41
2023/11/25 09:25:21;;;;;;;3.60;1.92;;;;;;;6.00;100.00;98565.38;5070878;28;20143;-41
2023/11/25 09:27:51;;;;;;;4.13;1.73;;;;;;;5.79;100.00;98550.91;5070972;28;20048;-39
2023/11/25 09:30:20;;;;;;;3.42;1.67;;;;;;;5.96;100.00;98561.22;5070963;28;20087;-41
2023/11/25 09:32:48;;;;;;;2.42;1.60;;;;;;;6.12;100.00;98547.81;5070721;28;20080;-41
2023/11/25 09:35:16;;;;;;;5.57;2.03;;;;;;;6.22;100.00;98555.00;5070963;28;20047;-42
2023/11/25 09:37:45;;;;;;;4.00;2.25;;;;;;;6.45;100.00;98550.75;5070906;28;20492;-40
2023/11/25 09:40:15;;;;;;;5.07;1.95;;;;;;;6.37;100.00;98546.94;5071043;28;20077;-42
2023/11/25 09:42:47;;;;;;;6.30;2.03;;;;;;;6.20;100.00;98535.75;5071666;28;20455;-42
2023/11/25 09:45:16;;;;;;;3.65;1.90;;;;;;;6.35;100.00;98538.25;5070664;28;20485;-41
2023/11/25 09:47:45;;;;;;;4.22;2.05;;;;;;;6.68;100.00;98538.53;5071023;28;20041;-41
2023/11/25 09:50:14;;;;;;;4.22;2.05;;;;;;;6.80;100.00;98535.00;5070824;28;20187;-44
2023/11/25 09:52:49;;;;;;;3.60;1.95;;;;;;;6.95;100.00;98538.38;5069292;28;20541;-41
2023/11/25 09:55:18;;;;;;;4.70;2.00;;;;;;;6.76;100.00;98538.00;5070398;28;20045;-41
2023/11/25 09:57:50;;;;;;;4.05;1.90;;;;;;;6.82;100.00;98527.78;5068472;28;20051;-40
2023/11/25 10:00:21;;;;;;;4.82;1.92;;;;;;;6.40;100.00;98541.44;5069825;28;20147;-44
2023/11/25 10:02:52;;;;;;;4.35;2.20;;;;;;;6.56;100.00;98542.03;5070084;28;20044;-41
2023/11/25 10:05:22;;;;;;;4.20;1.88;;;;;;;6.10;100.00;98539.13;5070609;28;20049;-41
2023/11/25 10:07:50;;;;;;;4.75;1.58;;;;;;;6.21;100.00;98557.78;5070621;28;20413;-42
2023/11/25 10:10:23;;;;;;;4.47;1.77;;;;;;;5.85;100.00;98543.41;5070480;28;20429;-42
2023/11/25 10:12:54;;;;;;;4.82;1.90;;;;;;;5.99;100.00;98547.81;5071241;28;20113;-41
2023/11/25 10:15:22;;;;;;;10.45;3.65;;;;;;;6.09;100.00;98542.75;5074133;28;20045;-41
2023/11/25 10:17:54;;;;;;;9.07;3.17;;;;;;;6.23;100.00;98550.56;5073920;28;20123;-42
2023/11/25 10:20:23;;;;;;;7.20;2.78;;;;;;;6.42;100.00;98545.66;5074067;28;20049;-41
2023/11/25 10:22:53;;;;;;;9.82;3.03;;;;;;;6.39;100.00;98551.19;5073852;28;20041;-42
2023/11/25 10:25:22;;;;;;;7.75;2.40;;;;;;;6.42;100.00;98550.13;5073746;28;20052;-41
2023/11/25 10:27:52;;;;;;;4.15;2.13;;;;;;;6.04;100.00;98550.97;5073885;28;20075;-42
2023/11/25 10:30:22;;;;;;;5.72;1.88;;;;;;;6.15;100.00;98543.13;5072636;28;20048;-41
2023/11/25 10:32:54;;;;;;;6.22;1.95;;;;;;;5.98;100.00;98543.44;5073689;28;20183;-42
2023/11/25 10:35:24;;;;;;;3.75;1.88;;;;;;;6.04;100.00;98545.69;5073744;28;20127;-41
2023/11/25 10:37:53;;;;;;;3.47;1.80;;;;;;;5.92;100.00;98549.19;5073916;28;20129;-41
2023/11/25 10:40:21;;;;;;;3.25;1.80;;;;;;;6.09;100.00;98535.63;5073925;28;20044;-43
2023/11/25 10:42:50;;;;;;;4.03;1.58;;;;;;;6.08;100.00;98551.59;5073717;28;20048;-42
2023/11/25 10:45:23;;;;;;;4.85;1.50;;;;;;;6.06;100.00;98546.41;5073622;28;20055;-42
2023/11/25 10:47:52;;;;;;;3.90;1.50;;;;;;;6.18;100.00;98537.66;5073147;28;20383;-41
2023/11/25 10:50:20;;;;;;;2.63;1.40;;;;;;;6.17;100.00;98530.63;5072826;28;20114;-42
2023/11/25 10:52:52;;;;;;;1.80;1.23;;;;;;;5.89;100.00;98542.28;5073353;28;20053;-42
2023/11/25 10:55:25;;;;;;;3.70;1.50;;;;;;;6.02;100.00;98537.84;5073123;28;20052;-41
2023/11/25 10:57:55;;;;;;;;;;;;;;;6.26;100.00;98532.66;5073742;28;20049;-41
2023/11/25 11:00:29;;;;;;;2.33;1.40;;;;;;;6.38;100.00;98530.13;5073113;28;19963;-40
2023/11/25 11:03:01;;;;;;;3.58;1.60;;;;;;;6.38;100.00;98530.13;5072899;28;20477;-41
2023/11/25 11:05:37;;;;;;;2.57;1.33;;;;;;;6.56;100.00;98534.09;5072638;28;20063;-41
2023/11/25 11:08:12;;;;;;;3.10;1.58;;;;;;;6.65;100.00;98525.50;5072866;28;20238;-42
2023/11/25 11:10:48;;;;;;;3.58;1.90;;;;;;;6.57;100.00;98527.88;5072908;28;20076;-42
2023/11/25 11:13:21;;;;;;;2.72;1.50;;;;;;;6.53;100.00;98529.88;5072856;28;20127;-42
2023/11/25 11:15:55;;;;;;;2.72;1.35;;;;;;;6.28;100.00;98517.53;5073008;28;20095;-42
2023/11/25 11:18:26;;;;;;;4.55;1.55;;;;;;;6.48;100.00;98516.13;5072811;28;20148;-41
2023/11/25 11:20:59;;;;;;;3.53;1.40;;;;;;;6.37;100.00;98515.16;5072712;28;20049;-42
2023/11/25 11:23:29;;;;;;;3.25;1.50;;;;;;;6.29;100.00;98508.63;5072506;28;20405;-42
2023/11/25 11:26:05;;;;;;;2.15;1.10;;;;;;;6.25;100.00;98522.16;5071960;28;20049;-42
2023/11/25 11:28:43;;;;;;;2.78;1.00;;;;;;;5.82;100.00;98526.91;5072774;28;20044;-42
2023/11/25 11:31:46;;;;;;;2.28;1.10;;;;;;;5.96;100.00;98516.25;5073004;28;20045;-42
2023/11/25 11:34:15;;;;;;;2.35;0.95;;;;;;;5.90;100.00;98508.72;5074022;28;20185;-42
2023/11/25 11:36:43;;;;;;;2.97;1.10;;;;;;;6.23;100.00;98506.41;5074236;28;20095;-41
2023/11/25 11:39:32;;;;;;;2.83;1.40;;;;;;;6.04;100.00;98503.34;5074353;28;20054;-40
2023/11/25 11:42:29;;;;;;;2.42;1.10;;;;;;;6.01;100.00;98508.84;5073048;28;20041;-42
2023/11/25 11:45:11;;;;;;;2.35;0.90;;;;;;;5.90;100.00;98501.66;5073243;28;20749;-42